Time;durP1;ratioP1;P1;durP2;ratioP2;P2;SDS_P1;SDS_P2;PMS_P1;PMS_P2;Temp;Humidity;BMP_temperature;BMP_pressure;BME280_temperature;BME280_humidity;BME280_pressure;Samples;Min_cycle;Max_cycle;Signal;HPM_P1;HPM_P2
2022/10/19 00:01:05;;;;;;;1.05;1.05;;;;;;;3.15;61.06;94045.81;5071435;28;20024;-34
2022/10/19 00:03:32;;;;;;;0.35;0.35;;;;;;;3.36;61.03;94052.63;5070139;28;20528;-34
2022/10/19 00:05:58;;;;;;;0.30;0.30;;;;;;;3.33;59.92;94053.63;5071558;28;20004;-34
2022/10/19 00:08:23;;;;;;;0.40;0.40;;;;;;;2.91;61.85;94053.56;5066641;28;20405;-34
2022/10/19 00:10:49;;;;;;;1.30;1.20;;;;;;;3.26;61.18;94045.88;5071248;28;20024;-34
2022/10/19 00:13:14;;;;;;;2.35;1.15;;;;;;;3.32;61.25;94040.44;5071393;28;20016;-34
2022/10/19 00:15:40;;;;;;;1.30;1.30;;;;;;;3.28;61.19;94031.75;5070849;28;20102;-34
2022/10/19 00:18:07;;;;;;;0.82;0.82;;;;;;;3.17;60.76;94032.41;5069911;28;20035;-34
2022/10/19 00:20:33;;;;;;;1.10;0.90;;;;;;;3.06;61.49;94027.63;5071332;28;20013;-34
2022/10/19 00:22:58;;;;;;;0.82;0.82;;;;;;;3.17;61.33;94026.22;5070875;28;20514;-34
2022/10/19 00:25:24;;;;;;;1.17;1.17;;;;;;;3.26;60.88;94021.31;5070671;28;20017;-34
2022/10/19 00:27:50;;;;;;;0.60;0.60;;;;;;;2.96;61.28;94014.69;5070832;28;20023;-34
2022/10/19 00:30:15;;;;;;;0.40;0.40;;;;;;;3.08;60.85;94014.25;5070725;28;20033;-34
2022/10/19 00:32:41;;;;;;;2.42;1.05;;;;;;;3.15;61.27;94012.31;5067802;28;20092;-34
2022/10/19 00:35:07;;;;;;;0.40;0.40;;;;;;;3.31;60.24;94012.44;5070392;28;20504;-34
2022/10/19 00:37:32;;;;;;;0.75;0.75;;;;;;;3.05;61.15;94001.59;5070821;28;20025;-34
2022/10/19 00:39:57;;;;;;;0.30;0.30;;;;;;;2.72;61.42;93990.47;5064238;28;20378;-34
2022/10/19 00:42:23;;;;;;;0.68;0.68;;;;;;;2.68;62.79;94000.84;5070177;28;20213;-34
2022/10/19 00:44:48;;;;;;;0.80;0.80;;;;;;;2.74;61.68;94003.59;5070822;28;20050;-34
2022/10/19 00:47:15;;;;;;;1.88;1.73;;;;;;;2.66;60.99;94000.59;5068004;28;20519;-34
2022/10/19 00:49:42;;;;;;;1.08;1.08;;;;;;;2.31;62.71;93991.88;5052983;28;20021;-34
2022/10/19 00:52:12;;;;;;;2.40;1.02;;;;;;;2.53;62.27;93985.84;5070201;28;20051;-34
2022/10/19 00:54:38;;;;;;;0.47;0.47;;;;;;;2.60;61.53;93982.69;5068837;28;20056;-34
2022/10/19 00:57:05;;;;;;;0.32;0.32;;;;;;;2.82;60.99;93974.66;5038502;28;20015;-34
2022/10/19 00:59:31;;;;;;;0.80;0.80;;;;;;;2.50;61.26;93957.59;5051310;28;20024;-34
2022/10/19 01:01:57;;;;;;;1.05;0.95;;;;;;;2.79;60.47;93964.75;5068483;28;20031;-34
2022/10/19 01:04:25;;;;;;;1.05;1.05;;;;;;;2.91;61.12;93969.03;5070084;28;20516;-34
2022/10/19 01:06:51;;;;;;;0.30;0.30;;;;;;;2.77;60.81;93957.03;5059347;28;20035;-34
2022/10/19 01:09:17;;;;;;;0.93;0.93;;;;;;;2.85;60.77;93955.38;5061535;28;20471;-34
2022/10/19 01:11:51;;;;;;;0.30;0.30;;;;;;;2.89;59.94;93947.69;5069508;28;20031;-34
2022/10/19 01:14:53;;;;;;;1.10;0.73;;;;;;;2.88;60.41;93945.47;5063281;28;20037;-34
2022/10/19 01:17:46;;;;;;;0.75;0.75;;;;;;;2.72;61.07;93938.66;5066057;28;20020;-34
2022/10/19 01:20:31;;;;;;;0.60;0.60;;;;;;;2.44;61.44;93945.16;5066922;28;20103;-34
2022/10/19 01:23:11;;;;;;;0.43;0.43;;;;;;;2.22;61.36;93919.22;5043923;28;20052;-34
2022/10/19 01:26:08;;;;;;;0.82;0.82;;;;;;;2.29;61.60;93942.56;5063028;28;20409;-34
2022/10/19 01:29:02;;;;;;;0.30;0.30;;;;;;;2.22;62.10;93934.81;5057472;28;20020;-34
2022/10/19 01:31:43;;;;;;;0.30;0.30;;;;;;;2.37;61.18;93927.25;5061908;28;20527;-34
2022/10/19 01:34:14;;;;;;;0.55;0.55;;;;;;;2.33;61.66;93926.75;5065676;28;20036;-34
2022/10/19 01:36:58;;;;;;;0.20;0.20;;;;;;;2.19;62.13;93919.44;5069685;28;20125;-34
2022/10/19 01:39:41;;;;;;;0.65;0.65;;;;;;;1.94;62.92;93922.94;5064558;28;20054;-34
2022/10/19 01:42:11;;;;;;;1.05;1.05;;;;;;;1.87;63.29;93920.66;5060810;28;20021;-34
2022/10/19 01:44:46;;;;;;;0.40;0.40;;;;;;;1.88;63.01;93922.16;5070178;28;20020;-34
2022/10/19 01:47:23;;;;;;;2.50;2.35;;;;;;;1.92;63.44;93918.00;5044289;28;20120;-34
2022/10/19 05:31:48;;;;;;;2.40;2.25;;;;;;;-0.49;67.09;93847.91;5097138;28;229443;-33
2022/10/19 05:34:13;;;;;;;6.68;6.15;;;;;;;-0.48;67.10;93844.00;5105532;28;20024;-33
2022/10/19 05:36:39;;;;;;;4.63;4.40;;;;;;;-0.32;66.81;93846.22;5099601;28;20024;-33
2022/10/19 05:39:13;;;;;;;12.45;9.07;;;;;;;-0.30;66.34;93849.22;5102649;28;20033;-33
2022/10/19 05:41:40;;;;;;;0.90;0.90;;;;;;;-0.15;66.08;93851.91;5101270;28;20027;-33
2022/10/19 05:44:06;;;;;;;3.05;2.75;;;;;;;0.00;66.07;93839.81;5103677;28;20051;-33
2022/10/19 05:46:32;;;;;;;1.77;1.73;;;;;;;0.10;65.51;93836.97;5100828;28;20055;-33
2022/10/19 05:48:58;;;;;;;2.33;2.17;;;;;;;0.32;65.60;93837.31;5093200;28;20457;-33
2022/10/19 05:51:25;;;;;;;2.15;2.05;;;;;;;0.37;65.58;93837.38;5098375;28;20023;-33
2022/10/19 05:53:52;;;;;;;2.03;1.95;;;;;;;0.38;65.96;93838.13;5100141;28;20024;-33
2022/10/19 05:56:20;;;;;;;2.20;2.10;;;;;;;0.43;66.90;93842.88;5104976;28;20028;-33
2022/10/19 05:58:45;;;;;;;2.08;1.80;;;;;;;0.81;65.46;93842.63;5106325;28;20415;-33
2022/10/19 06:01:12;;;;;;;7.60;4.47;;;;;;;0.73;66.50;93844.25;5106077;28;20024;-33
2022/10/19 06:03:38;;;;;;;10.35;4.82;;;;;;;0.85;66.69;93847.84;5099067;28;20030;-33
2022/10/19 06:06:04;;;;;;;4.43;4.00;;;;;;;1.01;66.88;93839.91;5099203;28;20415;-33
2022/10/19 06:08:30;;;;;;;7.85;6.18;;;;;;;1.30;67.95;93836.97;5093753;28;20526;-33
2022/10/19 06:11:13;;;;;;;0.55;0.55;;;;;;;1.66;67.81;93838.31;5100021;28;20020;-33
2022/10/19 06:13:40;;;;;;;2.85;2.17;;;;;;;2.07;67.02;93836.91;5097369;28;20050;-33
2022/10/19 06:16:06;;;;;;;3.40;2.55;;;;;;;2.38;66.40;93841.56;5104235;28;20039;-33
2022/10/19 06:18:32;;;;;;;7.97;4.80;;;;;;;2.50;66.92;93845.84;5095003;28;20023;-33
2022/10/19 06:21:04;;;;;;;2.60;2.50;;;;;;;2.66;67.61;93841.72;5102812;28;20027;-33
2022/10/19 06:23:31;;;;;;;1.38;1.25;;;;;;;3.18;67.14;93851.13;5090829;28;20028;-34
2022/10/19 06:25:57;;;;;;;1.15;1.15;;;;;;;3.57;67.29;93846.50;5095372;28;20027;-34
2022/10/19 06:28:22;;;;;;;1.23;1.23;;;;;;;4.17;66.49;93847.78;5096167;28;20024;-34
2022/10/19 06:30:47;;;;;;;1.27;1.27;;;;;;;5.31;63.34;93835.53;5105357;27;20055;-34
2022/10/19 06:33:13;;;;;;;1.60;1.55;;;;;;;6.79;58.37;93849.41;5145523;27;20023;-34
2022/10/19 06:35:41;;;;;;;2.17;1.50;;;;;;;8.47;54.39;93841.19;5131513;27;20024;-34
2022/10/19 06:38:07;;;;;;;3.00;2.80;;;;;;;10.26;49.86;93840.66;5130417;27;20019;-34
2022/10/19 06:40:33;;;;;;;1.30;1.30;;;;;;;11.92;45.72;93838.28;5124128;27;20091;-34
2022/10/19 06:42:59;;;;;;;0.85;0.85;;;;;;;13.42;42.24;93832.13;5129690;27;20023;-34
2022/10/19 06:45:24;;;;;;;0.63;0.63;;;;;;;14.84;39.33;93834.03;5121684;27;20026;-35
2022/10/19 06:47:50;;;;;;;1.05;1.05;;;;;;;16.39;36.53;93839.16;5121646;27;20031;-34
2022/10/19 06:50:15;;;;;;;3.47;2.83;;;;;;;17.73;33.67;93813.78;5131763;27;20030;-35
2022/10/19 06:52:41;;;;;;;3.53;1.33;;;;;;;17.91;32.82;93827.00;5128090;27;20020;-35
2022/10/19 06:55:07;;;;;;;7.43;3.10;;;;;;;19.12;31.34;93818.09;5123944;27;20027;-34
2022/10/19 06:57:32;;;;;;;1.85;1.55;;;;;;;19.71;30.07;93817.19;5124696;27;20015;-34
2022/10/19 06:59:58;;;;;;;0.50;0.50;;;;;;;20.33;29.22;93821.28;5129269;27;20023;-35
2022/10/19 07:02:23;;;;;;;0.60;0.60;;;;;;;20.70;28.93;93821.50;5126895;27;20568;-34
2022/10/19 07:04:49;;;;;;;1.13;0.68;;;;;;;21.25;27.87;93800.34;5128810;27;20449;-35
2022/10/19 07:07:14;;;;;;;2.10;1.92;;;;;;;21.29;27.27;93806.22;5132091;27;20023;-35
2022/10/19 07:09:40;;;;;;;0.77;0.77;;;;;;;21.43;26.90;93815.47;5126310;27;20023;-35
2022/10/19 07:12:05;;;;;;;0.68;0.68;;;;;;;21.85;27.26;93798.34;5125261;27;20046;-35
2022/10/19 07:14:37;;;;;;;2.78;0.95;;;;;;;22.15;26.14;93804.97;5126009;27;20014;-35
2022/10/19 07:17:03;;;;;;;0.77;0.77;;;;;;;22.30;26.17;93802.34;5128068;27;20022;-35
2022/10/19 07:19:28;;;;;;;0.70;0.70;;;;;;;22.66;26.19;93800.09;5124688;27;20027;-35
2022/10/19 07:21:54;;;;;;;0.73;0.70;;;;;;;22.21;26.00;93796.88;5117201;27;20108;-34
2022/10/19 07:24:19;;;;;;;0.40;0.40;;;;;;;22.18;25.72;93801.63;5126719;27;20034;-34
2022/10/19 07:26:45;;;;;;;0.75;0.75;;;;;;;22.28;26.26;93799.41;5125237;27;20104;-34
2022/10/19 07:29:10;;;;;;;0.47;0.47;;;;;;;21.74;26.85;93801.88;5126070;27;20015;-35
2022/10/19 07:31:36;;;;;;;0.50;0.50;;;;;;;21.78;26.43;93776.81;5120244;27;20502;-35
2022/10/19 07:34:03;;;;;;;0.40;0.40;;;;;;;21.98;26.24;93782.91;5128625;27;20026;-35
2022/10/19 07:36:30;;;;;;;0.60;0.60;;;;;;;21.06;28.36;93778.88;5130075;27;20015;-35
2022/10/19 07:38:55;;;;;;;1.55;1.45;;;;;;;21.29;27.73;93761.28;5120960;27;20016;-34
2022/10/19 07:41:23;;;;;;;2.88;1.27;;;;;;;21.23;27.59;93783.38;5130351;27;20022;-34
2022/10/19 07:43:49;;;;;;;2.45;0.95;;;;;;;21.31;28.18;93769.84;5107395;27;20023;-34
2022/10/19 07:46:24;;;;;;;0.40;0.40;;;;;;;21.20;27.01;93764.94;5119018;27;20084;-35
2022/10/19 07:48:49;;;;;;;0.20;0.20;;;;;;;21.45;26.89;93760.16;5131603;27;20027;-35
2022/10/19 07:51:16;;;;;;;0.73;0.73;;;;;;;21.11;27.77;93758.84;5120511;27;20023;-34
2022/10/19 07:53:42;;;;;;;1.27;1.17;;;;;;;20.70;28.13;93754.91;5119347;27;20051;-34
2022/10/19 07:56:14;;;;;;;0.40;0.40;;;;;;;20.61;29.04;93755.75;5118727;27;20034;-34
2022/10/19 07:58:40;;;;;;;0.82;0.82;;;;;;;21.04;28.00;93753.47;5121944;27;20023;-35
2022/10/19 08:01:08;;;;;;;0.40;0.40;;;;;;;21.23;28.09;93741.97;5124962;27;20098;-34
2022/10/19 08:03:34;;;;;;;0.43;0.43;;;;;;;21.48;28.82;93744.16;5118699;27;20055;-35
2022/10/19 08:06:01;;;;;;;0.70;0.60;;;;;;;21.96;27.36;93741.31;5124206;27;20507;-35
2022/10/19 08:08:27;;;;;;;0.38;0.38;;;;;;;22.43;26.84;93741.84;5120696;27;20047;-34
2022/10/19 08:10:53;;;;;;;0.90;0.90;;;;;;;22.28;26.50;93739.59;5121299;27;20055;-35
2022/10/19 08:13:18;;;;;;;0.20;0.20;;;;;;;22.66;25.51;93740.97;5120622;27;20120;-34
2022/10/19 08:15:44;;;;;;;3.15;1.75;;;;;;;22.85;25.79;93749.06;5126406;27;20027;-34
2022/10/19 08:18:10;;;;;;;0.93;0.90;;;;;;;23.15;24.50;93733.78;5130351;27;20136;-35
2022/10/19 08:20:35;;;;;;;0.20;0.20;;;;;;;23.17;24.57;93733.88;5124585;27;20455;-35
2022/10/19 08:23:01;;;;;;;0.60;0.60;;;;;;;23.09;26.43;93728.53;5122498;27;20019;-34
2022/10/19 08:25:27;;;;;;;0.52;0.52;;;;;;;23.08;26.10;93729.91;5122986;27;20103;-35
2022/10/19 08:27:52;;;;;;;0.32;0.32;;;;;;;23.38;25.62;93730.75;5132000;27;20023;-34
2022/10/19 08:30:18;;;;;;;0.40;0.32;;;;;;;23.71;24.67;93733.88;5131827;27;20043;-34
2022/10/19 08:32:43;;;;;;;0.40;0.40;;;;;;;24.20;25.18;93733.41;5131920;27;20030;-35
2022/10/19 08:35:09;;;;;;;2.75;1.13;;;;;;;24.88;24.49;93728.22;5132289;27;20023;-34
2022/10/19 08:37:34;;;;;;;0.82;0.82;;;;;;;24.59;23.81;93734.63;5131753;27;20552;-34
2022/10/19 08:40:00;;;;;;;1.73;1.23;;;;;;;24.62;24.29;93724.16;5131844;27;20019;-34
2022/10/19 08:42:36;;;;;;;0.95;0.80;;;;;;;24.76;23.13;93727.63;5132026;27;20483;-35
2022/10/19 08:45:04;;;;;;;1.50;0.47;;;;;;;24.75;22.58;93735.38;5132009;27;20476;-35
2022/10/19 08:47:46;;;;;;;0.85;0.70;;;;;;;23.84;23.79;93727.47;5113873;27;20651;-35
2022/10/19 08:50:38;;;;;;;0.25;0.25;;;;;;;23.73;24.07;93728.31;5113716;27;20042;-35
2022/10/19 08:53:07;;;;;;;4.82;0.85;;;;;;;23.44;24.46;93730.31;5120690;27;20096;-35
2022/10/19 08:55:46;;;;;;;2.80;1.45;;;;;;;23.16;24.43;93721.13;5131500;27;20034;-35
2022/10/19 08:58:49;;;;;;;0.52;0.52;;;;;;;23.14;25.65;93721.78;5131221;27;20039;-34
2022/10/19 09:01:32;;;;;;;0.85;0.85;;;;;;;22.37;26.40;93716.19;5131427;27;20031;-34
2022/10/19 09:04:03;;;;;;;0.20;0.20;;;;;;;22.20;25.84;93719.47;5131386;27;20035;-34
2022/10/19 09:06:36;;;;;;;0.85;0.85;;;;;;;22.29;25.71;93716.47;5113501;28;20026;-35
2022/10/19 09:09:01;;;;;;;0.82;0.82;;;;;;;22.13;26.34;93712.03;5131669;27;20019;-35
2022/10/19 09:11:39;;;;;;;2.13;1.40;;;;;;;22.09;26.01;93720.25;5131625;27;20384;-34
2022/10/19 09:14:32;;;;;;;0.77;0.77;;;;;;;22.21;26.23;93723.75;5113025;28;20034;-34
2022/10/19 09:17:04;;;;;;;0.43;0.43;;;;;;;22.74;25.66;93716.81;5108879;28;20468;-34
2022/10/19 09:19:30;;;;;;;0.45;0.45;;;;;;;22.77;25.01;93709.94;5112915;28;20474;-34
2022/10/19 09:22:28;;;;;;;0.93;0.93;;;;;;;22.58;25.12;93713.84;5131459;28;20038;-34
2022/10/19 09:24:58;;;;;;;0.30;0.30;;;;;;;22.36;25.74;93704.22;5130170;28;20727;-34
2022/10/19 09:27:25;;;;;;;0.40;0.40;;;;;;;22.17;26.03;93706.66;5113109;28;20502;-34
2022/10/19 09:29:56;;;;;;;0.30;0.30;;;;;;;22.33;26.40;93707.50;5131264;28;20019;-35
2022/10/19 09:32:41;;;;;;;0.45;0.45;;;;;;;22.51;25.84;93714.13;5112904;28;20490;-34
2022/10/19 09:35:20;;;;;;;0.98;0.98;;;;;;;22.52;25.79;93710.69;5130551;28;20046;-34
2022/10/19 09:37:47;;;;;;;0.73;0.73;;;;;;;22.51;25.73;93711.31;5131145;28;20414;-34
2022/10/19 09:40:22;;;;;;;0.35;0.35;;;;;;;22.54;25.59;93710.09;5131032;28;20031;-34
2022/10/19 09:42:55;;;;;;;0.73;0.73;;;;;;;22.33;25.12;93707.50;5130983;28;20483;-34
2022/10/19 09:46:03;;;;;;;2.42;0.60;;;;;;;22.19;26.47;93706.75;5131330;28;20406;-34
2022/10/19 09:48:37;;;;;;;0.50;0.50;;;;;;;22.50;25.37;93707.06;5120144;28;20494;-34
2022/10/19 09:51:10;;;;;;;0.50;0.47;;;;;;;22.92;24.94;93712.16;5112778;28;20046;-34
2022/10/19 09:53:36;;;;;;;0.20;0.20;;;;;;;23.40;24.33;93697.03;5130956;28;20518;-34
2022/10/19 10:43:15;;;;;;;1.33;1.20;;;;;;;29.39;16.08;93659.78;5118871;27;20583;-34
2022/10/19 10:46:05;;;;;;;0.35;0.35;;;;;;;29.35;15.96;93648.31;5133032;27;20462;-34
2022/10/19 10:48:36;;;;;;;0.47;0.47;;;;;;;29.39;15.99;93648.41;5120342;27;20031;-34
2022/10/19 10:51:18;;;;;;;0.30;0.30;;;;;;;29.83;15.12;93643.94;5134105;27;20051;-35
2022/10/19 10:53:44;;;;;;;1.27;1.17;;;;;;;30.00;15.45;93639.34;5134006;27;20153;-35
2022/10/19 10:56:28;;;;;;;5.38;0.95;;;;;;;30.06;14.60;93635.94;5132968;27;20093;-35
2022/10/19 10:58:59;;;;;;;0.82;0.82;;;;;;;30.09;14.64;93631.72;5113742;27;20114;-34
2022/10/19 11:01:57;;;;;;;3.05;0.68;;;;;;;29.34;15.05;93623.38;5113175;28;20443;-34
2022/10/19 11:04:26;;;;;;;2.33;1.17;;;;;;;29.33;15.63;93622.66;5085770;28;20040;-34
2022/10/19 11:06:59;;;;;;;0.20;0.20;;;;;;;28.97;15.85;93621.63;5112294;28;20403;-34
2022/10/19 11:09:32;;;;;;;26.15;3.70;;;;;;;29.16;15.21;93618.66;5111855;28;20051;-34
2022/10/19 11:12:02;;;;;;;0.30;0.30;;;;;;;29.64;15.10;93610.69;5121227;27;20510;-34
2022/10/19 11:14:49;;;;;;;0.45;0.30;;;;;;;28.65;15.44;93606.50;5132536;27;20019;-34
2022/10/19 11:17:22;;;;;;;0.52;0.40;;;;;;;28.30;15.31;93602.59;5133510;27;20080;-34
2022/10/19 11:19:51;;;;;;;0.25;0.25;;;;;;;28.50;16.21;93596.81;5133435;27;20114;-34
2022/10/19 11:22:39;;;;;;;1.45;0.40;;;;;;;29.01;16.28;93594.03;5133271;27;20559;-34
2022/10/19 11:25:24;;;;;;;;;;;;;;;29.16;16.36;93600.88;5127024;27;20159;-34
2022/10/19 11:28:10;;;;;;;0.80;0.80;;;;;;;29.22;16.76;93593.22;5133325;27;20410;-34
2022/10/19 11:31:05;;;;;;;0.15;0.13;;;;;;;28.90;16.37;93585.91;5092283;28;20500;-35
2022/10/19 11:33:59;;;;;;;0.65;0.65;;;;;;;28.38;17.09;93597.16;5081360;28;20064;-34
2022/10/19 11:36:51;;;;;;;0.08;0.08;;;;;;;28.46;17.46;93579.63;5092159;28;20036;-35
2022/10/19 11:39:24;;;;;;;0.10;0.10;;;;;;;28.31;16.91;93574.91;5092406;28;20034;-35
2022/10/19 11:42:11;;;;;;;0.80;0.80;;;;;;;27.99;17.69;93580.34;5090975;28;20035;-34
2022/10/19 11:44:50;;;;;;;0.30;0.25;;;;;;;27.72;17.61;93570.22;5070640;28;20044;-34
2022/10/19 11:47:52;;;;;;;0.25;0.25;;;;;;;27.12;18.16;93565.34;5071750;28;20028;-34
2022/10/19 11:50:56;;;;;;;0.20;0.20;;;;;;;27.04;18.43;93568.66;5063976;28;20047;-34
2022/10/19 11:53:36;;;;;;;0.28;0.28;;;;;;;27.10;18.34;93565.28;5047968;28;20036;-34
2022/10/19 11:56:38;;;;;;;0.25;0.25;;;;;;;26.95;18.15;93561.25;5070427;28;20068;-34
2022/10/19 11:59:13;;;;;;;0.30;0.30;;;;;;;26.35;18.91;93556.19;5070648;28;20025;-35
2022/10/19 12:01:59;;;;;;;0.20;0.20;;;;;;;26.14;19.32;93557.53;5071556;28;20085;-34
2022/10/19 12:04:27;;;;;;;0.47;0.47;;;;;;;25.97;19.85;93569.56;5070396;28;20412;-34
2022/10/19 12:07:07;;;;;;;0.30;0.30;;;;;;;25.89;20.53;93566.44;5071422;28;20093;-34
2022/10/19 12:09:53;;;;;;;0.63;0.60;;;;;;;25.45;20.46;93562.56;5070214;28;20039;-34
2022/10/19 12:12:29;;;;;;;1.17;1.08;;;;;;;25.71;20.59;93562.19;5070368;28;20547;-35
2022/10/19 12:15:15;;;;;;;0.73;0.73;;;;;;;26.09;20.55;93552.38;5071475;28;20506;-34
2022/10/19 12:17:43;;;;;;;0.40;0.32;;;;;;;26.05;20.89;93561.41;5070860;28;20409;-34
2022/10/19 12:20:26;;;;;;;0.40;0.38;;;;;;;25.76;19.40;93550.38;5071076;28;20031;-34
2022/10/19 12:22:51;;;;;;;0.82;0.82;;;;;;;25.33;19.59;93550.00;5071032;28;20036;-35
2022/10/19 12:25:18;;;;;;;0.40;0.40;;;;;;;25.44;19.90;93560.38;5079908;28;20020;-34
2022/10/19 12:27:46;;;;;;;8.45;4.15;;;;;;;25.51;20.04;93545.13;5091258;28;20493;-34
2022/10/19 12:30:19;;;;;;;2.33;1.60;;;;;;;25.46;18.69;93526.53;5090308;28;20505;-34
2022/10/19 12:33:06;;;;;;;3.28;0.82;;;;;;;25.06;18.94;93553.13;5090811;28;20085;-34
2022/10/19 12:36:01;;;;;;;0.68;0.38;;;;;;;24.45;19.44;93547.66;5091421;28;20085;-34
2022/10/19 12:38:36;;;;;;;2.08;1.20;;;;;;;24.19;18.60;93548.59;5045517;28;20034;-34
2022/10/19 12:41:24;;;;;;;1.77;1.67;;;;;;;24.21;21.57;93551.50;5089796;28;20504;-34
2022/10/19 12:43:57;;;;;;;0.63;0.63;;;;;;;24.07;19.99;93557.22;5089532;28;20169;-34
2022/10/19 12:46:42;;;;;;;0.40;0.40;;;;;;;23.93;19.56;93557.25;5091140;28;20038;-34
2022/10/19 12:49:27;;;;;;;0.40;0.40;;;;;;;23.63;20.13;93555.84;5089565;28;20027;-34
2022/10/19 12:51:54;;;;;;;0.30;0.30;;;;;;;23.25;21.33;93562.44;5049186;28;20067;-34
2022/10/19 12:54:23;;;;;;;1.80;1.70;;;;;;;23.17;20.12;93564.88;5090780;28;20035;-35
2022/10/19 12:56:51;;;;;;;0.10;0.10;;;;;;;23.10;21.51;93565.91;5089466;28;20485;-34
2022/10/19 12:59:43;;;;;;;0.10;0.10;;;;;;;22.89;21.12;93566.97;5089482;28;20043;-34
2022/10/19 13:02:29;;;;;;;0.20;0.20;;;;;;;22.66;21.15;93549.59;5086656;28;20579;-34
2022/10/19 13:04:55;;;;;;;0.28;0.28;;;;;;;22.65;21.02;93560.16;5089248;28;20028;-34
2022/10/19 13:07:20;;;;;;;0.65;0.65;;;;;;;22.51;21.26;93556.56;5090591;28;20035;-34
2022/10/19 13:09:47;;;;;;;0.17;0.17;;;;;;;22.47;21.88;93537.41;5090798;28;20054;-34
2022/10/19 13:12:16;;;;;;;0.32;0.32;;;;;;;22.48;21.73;93552.19;5090573;28;20679;-34
2022/10/19 13:14:56;;;;;;;0.32;0.32;;;;;;;22.38;21.77;93555.22;5090538;28;20078;-34
2022/10/19 13:17:39;;;;;;;0.30;0.30;;;;;;;22.38;21.77;93552.41;5090837;28;20028;-34
2022/10/19 13:20:14;;;;;;;0.40;0.40;;;;;;;22.30;21.77;93546.34;5090354;28;20539;-34
2022/10/19 13:22:44;;;;;;;1.10;1.10;;;;;;;22.16;21.39;93548.41;5090374;28;20039;-34
2022/10/19 13:25:18;;;;;;;1.67;1.05;;;;;;;22.02;21.61;93546.94;5090004;28;20020;-34
2022/10/19 13:27:46;;;;;;;0.50;0.50;;;;;;;21.97;22.02;93543.19;5090651;28;20028;-34
2022/10/19 13:30:33;;;;;;;0.50;0.50;;;;;;;22.01;22.95;93537.78;5090647;28;20061;-34
2022/10/19 13:32:59;;;;;;;0.35;0.32;;;;;;;22.02;22.12;93547.69;5090249;28;20024;-34
2022/10/19 13:35:29;;;;;;;1.15;1.10;;;;;;;21.99;21.41;93536.94;5090372;28;20491;-34
2022/10/19 13:38:14;;;;;;;0.77;0.77;;;;;;;21.93;22.00;93537.34;5089135;28;20095;-34
2022/10/19 13:40:54;;;;;;;5.53;1.38;;;;;;;21.71;22.00;93536.84;5090234;28;20031;-34
2022/10/19 13:43:36;;;;;;;0.75;0.75;;;;;;;21.69;22.40;93536.00;5108665;28;20138;-34
2022/10/19 13:46:02;;;;;;;2.10;1.17;;;;;;;21.62;21.83;93529.34;5115966;27;20094;-35
2022/10/19 13:48:37;;;;;;;0.75;0.70;;;;;;;21.44;22.05;93502.34;5135225;27;20529;-34
2022/10/19 13:51:17;;;;;;;0.30;0.30;;;;;;;21.52;22.34;93525.97;5135426;27;20079;-34
2022/10/19 13:54:01;;;;;;;0.55;0.55;;;;;;;21.54;22.87;93528.16;5135130;27;20331;-34
2022/10/19 13:56:38;;;;;;;0.88;0.88;;;;;;;21.40;22.06;93530.19;5135010;27;20030;-34
2022/10/19 13:59:54;;;;;;;1.27;1.17;;;;;;;21.16;22.80;93512.00;5114481;28;20027;-34
2022/10/19 14:02:45;;;;;;;3.38;0.47;;;;;;;21.21;22.76;93522.09;5079845;28;20039;-34
2022/10/19 14:05:20;;;;;;;0.57;0.52;;;;;;;21.12;22.81;93518.84;5114303;28;20035;-34
2022/10/19 14:08:10;;;;;;;0.65;0.65;;;;;;;21.08;23.09;93524.22;5114576;28;20414;-34
2022/10/19 14:10:36;;;;;;;0.65;0.65;;;;;;;21.13;23.15;93523.13;5114166;28;20116;-35
2022/10/19 14:13:04;;;;;;;0.60;0.57;;;;;;;21.06;23.47;93520.56;5096285;28;20136;-34
2022/10/19 14:15:34;;;;;;;0.20;0.20;;;;;;;20.95;23.41;93515.72;5114408;28;20031;-34
2022/10/19 14:17:59;;;;;;;1.02;1.00;;;;;;;20.91;23.75;93519.03;5114055;28;20495;-34
2022/10/19 14:20:36;;;;;;;0.85;0.85;;;;;;;20.91;23.32;93516.22;5114246;28;20077;-34
2022/10/19 14:23:23;;;;;;;1.85;0.88;;;;;;;20.77;23.72;93501.38;5113874;28;20035;-34
2022/10/19 14:25:54;;;;;;;1.40;0.85;;;;;;;20.60;23.92;93498.97;5128357;27;20053;-34
2022/10/19 14:28:20;;;;;;;0.52;0.52;;;;;;;20.70;23.65;93502.38;5133271;27;20059;-34
2022/10/19 14:31:00;;;;;;;1.45;1.30;;;;;;;20.40;24.26;93512.56;5134383;27;20458;-34
2022/10/19 14:33:31;;;;;;;1.00;1.00;;;;;;;20.42;23.46;93520.38;5115935;27;20023;-34
2022/10/19 14:35:57;;;;;;;0.55;0.55;;;;;;;20.19;23.62;93515.50;5116023;27;20027;-35
2022/10/19 14:38:35;;;;;;;0.30;0.30;;;;;;;20.12;23.99;93518.56;5115910;27;20035;-34
2022/10/19 14:41:02;;;;;;;0.40;0.40;;;;;;;19.98;24.05;93515.63;5134558;27;20023;-34
2022/10/19 14:43:30;;;;;;;0.55;0.55;;;;;;;19.87;24.33;93521.97;5133921;27;20084;-34
2022/10/19 14:46:08;;;;;;;0.22;0.22;;;;;;;19.85;25.11;93529.50;5134407;27;20038;-34
2022/10/19 14:48:36;;;;;;;0.50;0.50;;;;;;;19.82;25.14;93530.72;5116137;27;20062;-34
2022/10/19 14:51:08;;;;;;;0.10;0.10;;;;;;;19.67;25.58;93521.44;5133966;27;20415;-34
2022/10/19 14:54:07;;;;;;;0.25;0.25;;;;;;;19.53;26.13;93534.56;5134315;27;20037;-34
2022/10/19 14:56:41;;;;;;;0.70;0.70;;;;;;;19.51;26.37;93533.72;5117311;27;20023;-34
2022/10/19 14:59:12;;;;;;;0.22;0.22;;;;;;;19.54;26.11;93529.72;5133892;27;20084;-34
2022/10/19 15:01:37;;;;;;;0.52;0.52;;;;;;;19.53;26.13;93531.78;5134095;27;20102;-34
2022/10/19 15:04:03;;;;;;;1.63;1.52;;;;;;;19.41;26.41;93535.88;5133962;27;20099;-34
2022/10/19 15:06:30;;;;;;;1.40;1.20;;;;;;;19.34;27.23;93531.22;5133737;27;20027;-34
2022/10/19 15:09:04;;;;;;;2.22;1.95;;;;;;;19.23;26.96;93537.53;5115326;27;20023;-34
2022/10/19 15:11:35;;;;;;;0.47;0.47;;;;;;;18.99;27.18;93505.94;5115196;27;20509;-34
2022/10/19 15:14:07;;;;;;;0.52;0.52;;;;;;;19.02;27.20;93529.91;5115584;27;20077;-34
2022/10/19 15:16:41;;;;;;;0.55;0.55;;;;;;;18.83;28.16;93536.41;5115301;27;20031;-34
2022/10/19 15:19:31;;;;;;;1.55;1.05;;;;;;;18.79;28.58;93538.94;5133427;27;20110;-34
2022/10/19 15:22:11;;;;;;;3.03;1.23;;;;;;;18.59;28.21;93532.00;5115388;27;20097;-34
2022/10/19 15:24:37;;;;;;;0.90;0.90;;;;;;;18.61;28.83;93534.19;5133425;27;20038;-34
2022/10/19 15:27:10;;;;;;;0.28;0.28;;;;;;;18.64;28.56;93539.34;5133305;27;20482;-34
2022/10/19 15:29:36;;;;;;;2.72;2.08;;;;;;;18.57;29.67;93543.06;5114797;27;20160;-34
2022/10/19 15:32:13;;;;;;;2.33;1.75;;;;;;;18.32;30.75;93548.34;5114887;27;20031;-34
2022/10/19 15:34:40;;;;;;;8.93;1.95;;;;;;;18.18;31.02;93553.72;5114748;27;20624;-34
2022/10/19 15:37:17;;;;;;;2.00;1.85;;;;;;;18.07;31.11;93551.56;5115067;27;20030;-34
2022/10/19 15:39:43;;;;;;;1.67;1.58;;;;;;;17.89;31.50;93557.97;5115102;27;20128;-34
2022/10/19 15:42:30;;;;;;;1.45;0.90;;;;;;;17.81;31.65;93560.22;5132964;27;20517;-34
2022/10/19 15:44:55;;;;;;;1.05;1.02;;;;;;;17.39;32.40;93555.91;5132946;27;20038;-34
2022/10/19 15:47:23;;;;;;;1.80;1.70;;;;;;;17.14;32.66;93561.09;5114522;27;20027;-34
2022/10/19 15:49:54;;;;;;;1.67;1.58;;;;;;;17.02;32.80;93568.56;5132722;27;20019;-34
2022/10/19 15:52:32;;;;;;;2.38;2.20;;;;;;;16.84;33.14;93566.53;5132626;27;20403;-34
2022/10/19 15:54:59;;;;;;;3.50;2.57;;;;;;;16.68;33.53;93569.63;5132780;27;20031;-34
2022/10/19 15:57:35;;;;;;;4.57;2.38;;;;;;;16.71;33.84;93576.09;5132525;27;20098;-34
2022/10/19 16:00:11;;;;;;;6.50;1.98;;;;;;;16.80;33.34;93577.41;5132718;27;20023;-34
2022/10/19 16:02:38;;;;;;;0.88;0.80;;;;;;;16.59;34.49;93575.91;5132617;27;20023;-34
2022/10/19 16:05:04;;;;;;;1.05;1.05;;;;;;;16.54;34.50;93581.78;5132474;27;20023;-34
2022/10/19 16:07:32;;;;;;;0.70;0.70;;;;;;;16.56;33.87;93591.03;5113483;27;20487;-34
2022/10/19 16:09:57;;;;;;;0.55;0.55;;;;;;;16.33;34.46;93593.44;5132476;27;20506;-34
2022/10/19 16:12:25;;;;;;;1.50;1.48;;;;;;;16.27;34.49;93598.56;5132685;27;20056;-34
2022/10/19 16:14:50;;;;;;;1.13;1.13;;;;;;;16.09;34.96;93597.19;5132259;27;20023;-34
2022/10/19 16:17:16;;;;;;;0.43;0.43;;;;;;;15.69;35.76;93603.19;5132602;27;20046;-34
2022/10/19 16:19:42;;;;;;;0.38;0.38;;;;;;;15.09;37.11;93615.81;5132308;27;20023;-34
2022/10/19 16:22:08;;;;;;;0.17;0.17;;;;;;;15.07;37.36;93615.66;5132205;27;20518;-34
2022/10/19 16:24:33;;;;;;;0.35;0.35;;;;;;;15.07;38.10;93618.44;5132326;27;20047;-34
2022/10/19 16:26:59;;;;;;;1.02;1.02;;;;;;;14.89;38.82;93622.56;5131965;27;20015;-34
2022/10/19 16:29:24;;;;;;;1.65;1.33;;;;;;;15.00;38.39;93629.66;5132276;27;20456;-34
2022/10/19 16:31:50;;;;;;;0.63;0.38;;;;;;;14.42;39.61;93626.34;5131996;27;20019;-34